Detalii statie SCHWAB AGRO ARDUD [00001CF5]

Toti senzorii

Date Temperatura solului [C]Precipitatii [mm]Voltaj baterie [mV]Leaf Wetness [Min]HC Air temperature [C]HC Relative humidity [%]Punctul de roua [C]
medieminmaxsumaultimatimpmedieminmaxmediemediemin
2019-02-21 01:00:00 0 6454 -0.59 -1 -0.18 100 -0.4 -0.9
2019-02-21 02:00:00 0 6454 -0.51 -1.2 0.15 100 -0.4 -1.1
2019-02-21 03:00:00 0 6454 0.45 0.11 0.86 100 0.4 0.1
2019-02-21 04:00:00 0 6454 1.26 0.78 1.54 100 1.2 0.7
2019-02-21 05:00:00 0 6444 0.35 -0.75 1.24 100 0.3 -0.6
2019-02-21 06:00:00 0 6444 -0.87 -1.04 -0.53 100 -0.7 -0.9
2019-02-21 07:00:00 0 6444 -0.25 -0.79 0.19 100 -0.1 -0.6
2019-02-21 08:00:00 0 6444 0.52 0.32 0.99 100 0.4 0.3
2019-02-21 09:00:00 0 6444 1.65 1.18 2.31 100 1.6 1.1
2019-02-21 10:00:00 0 6454 3.85 2.64 4.55 100 3.8 2.6
2019-02-21 11:00:00 0 6454 5.15 4.57 5.82 100 5.1 4.5
2019-02-21 12:00:00 0 6464 6.3 5.83 6.75 100 6.2 5.8
2019-02-21 13:00:00 0 6474 7.34 7.07 7.82 100 7.2 7
2019-02-21 14:00:00 0 6502 8.96 7.98 9.94 91.96 7.5 6.7
2019-02-21 15:00:00 0 6484 9.44 9.21 9.88 80.21 6 5.6
2019-02-21 16:00:00 0 6474 9.29 9.16 9.37 81.62 6.1 5.5
2019-02-21 17:00:00 0 6464 8.62 8.23 9.11 82.37 5.6 5.3
2019-02-21 18:00:00 0 6454 7.75 7.47 8.17 87.55 5.7 5.2
2019-02-21 19:00:00 0 6454 7.36 7.1 7.57 84.2 4.7 4.2
2019-02-21 20:00:00 0 6454 6.98 6.88 7.09 81.83 3.9 3.6
2019-02-21 21:00:00 0 6454 6.78 6.46 7.12 79.68 3.3 3
2019-02-21 22:00:00 0 6454 6.66 6.5 6.8 78.84 3.1 3
2019-02-21 23:00:00 0 6444 6.66 6.53 6.79 77.84 2.9 2.8
2019-02-22 00:00:00 0 6444 6.39 6.21 6.56 78.68 2.8 2.7
2019-02-22 01:00:00 0 6444 6.31 6.09 6.44 81.33 3.1 2.9
2019-02-22 02:00:00 0.2 6444 5.67 4.98 6.19 93.28 4.5 3.1
2019-02-22 03:00:00 2 6444 4.47 4.04 4.87 91.66 0
2019-02-22 04:00:00 1.8 6444 3.71 3.55 3.98 100 3.6 3.5
2019-02-22 05:00:00 0.6 6444 3.45 3.35 3.53 100 3.4 3.3
2019-02-22 06:00:00 0.2 6434 3.22 3.11 3.35 100 3.1 3.1
2019-02-22 07:00:00 0.2 6434 3.05 2.98 3.14 100 3 2.9
2019-02-22 08:00:00 0.6 6434 2.99 2.96 3.03 100 2.9 2.9
2019-02-22 09:00:00 0.2 6434 3.2 3.09 3.38 100 3.1 3
2019-02-22 10:00:00 0.2 6434 3.55 3.34 3.77 100 3.5 3.3
2019-02-22 11:00:00 0.2 6434 3.88 3.78 4.06 100 3.8 3.7
2019-02-22 12:00:00 0 6434 4.2 4.01 4.32 66.66 2.7 0
2019-02-22 13:00:00 0.2 6434 3.74 3.25 4.21 0 0 0
2019-02-22 14:00:00 0 6434 3.07 2.8 3.43 50 1.4 0
2019-02-22 15:00:00 0 6494 3.07 2.52 3.92 67.22 0 0
2019-02-22 16:00:00 0 6474 2.87 2.02 3.69 32.07 -12.3 -16.8
2019-02-22 17:00:00 0 6454 1.39 0.77 2.01 0 0 0
2019-02-22 18:00:00 0 6444 -0.09 -0.97 0.58 0 0 0
2019-02-22 19:00:00 0 6434 -1.47 -1.85 -1.03 0 0 0